createdAt,value
2023-05-14T00:00:04.826Z,100942.06
2023-05-14T00:03:09.562Z,100980.44
2023-05-14T00:06:14.603Z,100988.28
2023-05-14T00:09:18.103Z,100977.53
2023-05-14T00:12:21.970Z,100985.41
2023-05-14T00:15:25.313Z,100986.06
2023-05-14T00:18:29.207Z,100979.50
2023-05-14T00:21:32.485Z,100967.84
2023-05-14T00:24:36.403Z,100975.72
2023-05-14T00:27:39.574Z,100968.53
2023-05-14T00:30:42.981Z,100963.50
2023-05-14T00:33:46.362Z,100962.75
2023-05-14T00:36:51.430Z,100971.63
2023-05-14T00:39:54.635Z,100970.09
2023-05-14T00:42:58.156Z,100955.37
2023-05-14T00:46:01.464Z,100971.97
2023-05-14T00:49:05.209Z,100966.38
2023-05-14T00:52:08.927Z,100973.06
2023-05-14T00:55:16.708Z,100966.44
2023-05-14T00:58:20.535Z,100970.66
2023-05-14T01:01:25.248Z,100958.81
2023-05-14T01:04:28.663Z,100972.84
2023-05-14T01:07:54.981Z,100972.53
2023-05-14T01:11:03.688Z,100959.66
2023-05-14T01:14:24.953Z,100904.03
2023-05-14T01:17:31.181Z,100959.91
2023-05-14T01:20:34.643Z,100956.25
2023-05-14T01:23:38.135Z,100953.50
2023-05-14T01:26:41.592Z,100940.69
2023-05-14T01:29:52.766Z,100934.09
2023-05-14T01:32:59.048Z,100927.56
2023-05-14T01:36:03.059Z,100918.53
2023-05-14T01:39:09.704Z,100919.06
2023-05-14T01:42:13.448Z,100915.44
2023-05-14T01:45:17.059Z,100912.78
2023-05-14T01:48:20.594Z,100910.03
2023-05-14T01:51:23.928Z,100908.97
2023-05-14T01:54:27.448Z,100903.56
2023-05-14T01:57:31.472Z,100899.91
2023-05-14T02:00:34.961Z,100891.00
2023-05-14T02:03:38.437Z,100878.06
2023-05-14T02:06:41.569Z,100892.75
2023-05-14T02:09:45.361Z,100886.38
2023-05-14T02:12:48.374Z,100836.59
2023-05-14T02:15:51.906Z,100878.28
2023-05-14T02:18:55.216Z,100868.34
2023-05-14T02:22:01.250Z,100869.22
2023-05-14T02:25:04.695Z,100868.25
2023-05-14T02:28:08.028Z,100866.44
2023-05-14T02:31:11.221Z,100867.16
2023-05-14T02:34:14.698Z,100865.06
2023-05-14T02:37:17.804Z,100863.13
2023-05-14T02:40:21.561Z,100842.03
2023-05-14T02:43:24.746Z,100850.25
2023-05-14T02:46:28.972Z,100852.00
2023-05-14T02:49:32.133Z,100859.41
2023-05-14T02:52:36.046Z,100857.72
2023-05-14T02:55:39.173Z,100850.66
2023-05-14T02:58:42.480Z,100831.53
2023-05-14T03:01:46.033Z,100848.47
2023-05-14T03:04:50.666Z,100831.25
2023-05-14T03:07:53.855Z,100845.62
2023-05-14T03:10:57.302Z,100846.34
2023-05-14T03:14:00.369Z,100842.12
2023-05-14T03:17:04.169Z,100849.84
2023-05-14T03:20:07.947Z,100848.34
2023-05-14T03:23:14.984Z,100836.81
2023-05-14T03:26:19.001Z,100829.13
2023-05-14T03:29:22.402Z,100835.00
2023-05-14T03:32:25.654Z,100830.22
2023-05-14T03:35:29.435Z,100833.47
2023-05-14T03:38:32.594Z,100841.88
2023-05-14T03:41:36.443Z,100838.13
2023-05-14T03:44:39.512Z,100840.78
2023-05-14T03:47:42.896Z,100836.94
2023-05-14T03:50:46.429Z,100836.63
2023-05-14T03:53:49.851Z,100839.78
2023-05-14T03:56:52.918Z,100835.69
2023-05-14T03:59:56.311Z,100846.87
2023-05-14T04:02:59.384Z,100850.06
2023-05-14T04:06:02.779Z,100857.03
2023-05-14T04:09:06.772Z,100849.53
2023-05-14T04:12:12.366Z,100841.16
2023-05-14T04:15:16.006Z,100848.19
2023-05-14T04:18:19.442Z,100846.16
2023-05-14T04:21:22.569Z,100845.06
2023-05-14T04:24:25.913Z,100861.91
2023-05-14T04:27:29.286Z,100846.53
2023-05-14T04:30:32.694Z,100835.88
2023-05-14T04:33:35.911Z,100847.16
2023-05-14T04:36:40.307Z,100843.37
2023-05-14T04:39:43.790Z,100845.91
2023-05-14T04:42:47.163Z,100830.66
2023-05-14T04:45:51.746Z,100833.25
2023-05-14T04:48:55.097Z,100835.88
2023-05-14T04:51:58.626Z,100828.00
2023-05-14T04:55:02.150Z,100830.66
2023-05-14T04:58:05.797Z,100830.28
2023-05-14T05:01:09.490Z,100825.59
2023-05-14T05:04:13.077Z,100827.31
2023-05-14T05:07:16.443Z,100826.53
2023-05-14T05:10:19.559Z,100824.69
2023-05-14T05:13:23.016Z,100821.28
2023-05-14T05:16:26.534Z,100822.16
2023-05-14T05:19:42.404Z,100811.50
2023-05-14T05:22:46.499Z,100821.38
2023-05-14T05:25:50.897Z,100813.09
2023-05-14T05:28:54.033Z,100806.03
2023-05-14T05:31:57.673Z,100817.53
2023-05-14T05:35:01.505Z,100808.44
2023-05-14T05:38:04.943Z,100810.81
2023-05-14T05:41:08.284Z,100804.41
2023-05-14T05:44:11.759Z,100818.81
2023-05-14T05:47:14.816Z,100815.00
2023-05-14T05:50:20.000Z,100803.47
2023-05-14T05:53:23.261Z,100808.44
2023-05-14T05:56:26.771Z,100805.72
2023-05-14T05:59:29.798Z,100815.31
2023-05-14T06:02:33.343Z,100811.56
2023-05-14T06:05:38.300Z,100808.75
2023-05-14T06:08:42.291Z,100809.47
2023-05-14T06:11:45.860Z,100814.16
2023-05-14T06:14:49.424Z,100811.56
2023-05-14T06:17:52.884Z,100805.63
2023-05-14T06:20:57.028Z,100813.47
2023-05-14T06:24:00.586Z,100808.66
2023-05-14T06:27:03.771Z,100815.56
2023-05-14T06:30:07.811Z,100814.22
2023-05-14T06:33:13.079Z,100822.28
2023-05-14T06:36:16.392Z,100823.94
2023-05-14T06:39:19.425Z,100813.09
2023-05-14T06:42:22.828Z,100812.91
2023-05-14T06:45:25.928Z,100815.53
2023-05-14T06:48:29.764Z,100820.50
2023-05-14T06:51:32.980Z,100810.06
2023-05-14T06:54:37.455Z,100810.53
2023-05-14T06:57:40.956Z,100812.63
2023-05-14T07:00:45.140Z,100793.13
2023-05-14T07:03:48.319Z,100801.19
2023-05-14T07:06:51.710Z,100790.25
2023-05-14T07:09:54.899Z,100794.41
2023-05-14T07:12:58.596Z,100793.47
2023-05-14T07:16:01.575Z,100782.31
2023-05-14T07:19:04.943Z,100786.19
2023-05-14T07:22:08.205Z,100780.19
2023-05-14T07:25:14.347Z,100770.81
2023-05-14T07:28:17.610Z,100764.72
2023-05-14T07:31:21.166Z,100775.03
2023-05-14T07:34:24.557Z,100757.75
2023-05-14T07:37:27.990Z,100756.09
2023-05-14T07:40:31.689Z,100753.91
2023-05-14T07:43:36.050Z,100740.31
2023-05-14T07:46:39.285Z,100745.09
2023-05-14T07:49:43.488Z,100737.75
2023-05-14T07:52:46.535Z,100746.03
2023-05-14T07:55:49.970Z,100746.59
2023-05-14T07:58:53.005Z,100743.88
2023-05-14T08:01:56.904Z,100733.22
2023-05-14T08:05:00.677Z,100731.41
2023-05-14T08:08:03.937Z,100723.88
2023-05-14T08:11:07.226Z,100721.94
2023-05-14T08:14:10.240Z,100718.63
2023-05-14T08:17:14.219Z,100717.53
2023-05-14T08:20:17.354Z,100712.22
2023-05-14T08:23:20.980Z,100716.66
2023-05-14T08:26:24.863Z,100702.28
2023-05-14T08:29:28.610Z,100696.19
2023-05-14T08:32:31.665Z,100708.03
2023-05-14T08:35:35.185Z,100701.91
2023-05-14T08:38:38.281Z,100701.63
2023-05-14T08:41:41.726Z,100701.16
2023-05-14T08:44:59.240Z,100690.50
2023-05-14T08:48:09.229Z,100686.16
2023-05-14T08:51:12.923Z,100692.22
2023-05-14T08:54:18.101Z,100685.06
2023-05-14T08:57:24.896Z,100679.84
2023-05-14T09:00:28.562Z,100671.78
2023-05-14T09:03:33.444Z,100636.22
2023-05-14T09:06:38.434Z,100660.28
2023-05-14T09:09:43.067Z,100650.72
2023-05-14T09:12:46.495Z,100661.91
2023-05-14T09:15:51.361Z,100637.81
2023-05-14T09:18:55.879Z,100661.63
2023-05-14T09:21:59.399Z,100667.09
2023-05-14T09:25:09.519Z,100654.19
2023-05-14T09:28:12.961Z,100665.38
2023-05-14T09:31:16.306Z,100654.03
2023-05-14T09:34:30.689Z,100655.59
2023-05-14T09:37:37.098Z,100642.53
2023-05-14T09:40:40.445Z,100646.78
2023-05-14T09:43:45.197Z,100640.13
2023-05-14T09:46:49.224Z,100622.28
2023-05-14T09:49:53.062Z,100611.41
2023-05-14T09:52:56.297Z,100620.44
2023-05-14T09:55:59.890Z,100591.22
2023-05-14T09:59:03.935Z,100613.06
2023-05-14T10:02:34.058Z,100622.97
2023-05-14T10:05:40.157Z,100617.38
2023-05-14T10:08:45.772Z,100602.63
2023-05-14T10:11:54.367Z,100600.00
2023-05-14T10:15:01.586Z,100596.00
2023-05-14T10:18:11.426Z,100597.50
2023-05-14T10:21:15.806Z,100583.38
2023-05-14T10:24:20.230Z,100590.34
2023-05-14T10:27:23.885Z,100583.38
2023-05-14T10:30:27.400Z,100575.34
2023-05-14T10:33:30.679Z,100563.16
2023-05-14T10:36:34.063Z,100556.94
2023-05-14T10:39:47.561Z,100539.66
2023-05-14T10:42:51.104Z,100545.75
2023-05-14T10:45:54.514Z,100538.94
2023-05-14T10:48:59.562Z,100549.16
2023-05-14T10:52:02.613Z,100567.44
2023-05-14T10:55:10.330Z,100548.34
2023-05-14T10:58:13.514Z,100552.47
2023-05-14T11:01:17.038Z,100552.47
2023-05-14T11:04:24.595Z,100559.66
2023-05-14T11:07:33.729Z,100548.78
2023-05-14T11:10:39.025Z,100524.34
2023-05-14T11:13:43.148Z,100545.19
2023-05-14T11:16:47.551Z,100539.97
2023-05-14T11:19:51.212Z,100543.78
2023-05-14T11:22:55.529Z,100539.44
2023-05-14T11:25:58.668Z,100529.00
2023-05-14T11:29:02.034Z,100540.31
2023-05-14T11:32:06.765Z,100527.91
2023-05-14T11:35:10.270Z,100519.34
2023-05-14T11:38:15.756Z,100523.78
2023-05-14T11:41:21.721Z,100491.00
2023-05-14T11:44:25.566Z,100532.16
2023-05-14T11:47:31.833Z,100533.13
2023-05-14T11:50:36.853Z,100518.37
2023-05-14T11:53:40.037Z,100516.84
2023-05-14T11:56:43.542Z,100522.09
2023-05-14T11:59:47.964Z,100519.38
2023-05-14T12:02:51.974Z,100511.00
2023-05-14T12:06:07.757Z,100509.72
2023-05-14T12:09:15.770Z,100512.13
2023-05-14T12:12:21.629Z,100492.56
2023-05-14T12:15:26.772Z,100495.81
2023-05-14T12:18:32.495Z,100493.41
2023-05-14T12:21:36.732Z,100499.56
2023-05-14T12:24:40.452Z,100495.31
2023-05-14T12:27:45.670Z,100480.78
2023-05-14T12:30:56.845Z,100479.72
2023-05-14T12:34:00.162Z,100466.69
2023-05-14T12:37:05.045Z,100472.47
2023-05-14T12:40:09.786Z,100472.69
2023-05-14T12:43:13.372Z,100474.00
2023-05-14T12:46:17.957Z,100477.16
2023-05-14T12:49:21.360Z,100479.09
2023-05-14T12:52:36.861Z,100471.06
2023-05-14T12:55:41.632Z,100464.69
2023-05-14T12:58:46.767Z,100460.19
2023-05-14T13:01:50.214Z,100456.84
2023-05-14T13:04:53.231Z,100444.13
2023-05-14T13:07:59.505Z,100439.69
2023-05-14T13:11:02.694Z,100438.06
2023-05-14T13:14:06.250Z,100425.22
2023-05-14T13:17:09.584Z,100414.72
2023-05-14T13:20:12.884Z,100406.13
2023-05-14T13:23:16.136Z,100414.72
2023-05-14T13:26:19.529Z,100409.38
2023-05-14T13:29:22.596Z,100403.88
2023-05-14T13:32:26.134Z,100405.06
2023-05-14T13:35:29.295Z,100392.25
2023-05-14T13:38:32.991Z,100385.72
2023-05-14T13:41:37.865Z,100377.03
2023-05-14T13:44:41.617Z,100378.91
2023-05-14T13:47:44.813Z,100374.19
2023-05-14T13:50:48.627Z,100365.31
2023-05-14T13:53:51.965Z,100358.69
2023-05-14T13:56:56.278Z,100350.53
2023-05-14T13:59:59.683Z,100344.44
2023-05-14T14:03:03.579Z,100336.63
2023-05-14T14:06:07.051Z,100339.53
2023-05-14T14:09:10.166Z,100329.25
2023-05-14T14:12:13.815Z,100321.00
2023-05-14T14:15:17.059Z,100334.97
2023-05-14T14:18:20.637Z,100336.81
2023-05-14T14:21:23.992Z,100310.50
2023-05-14T14:24:27.934Z,100346.66
2023-05-14T14:27:32.421Z,100318.25
2023-05-14T14:30:36.095Z,100330.81
2023-05-14T14:33:39.261Z,100340.47
2023-05-14T14:36:42.740Z,100339.63
2023-05-14T14:39:46.101Z,100341.47
2023-05-14T14:42:49.845Z,100336.91
2023-05-14T14:45:52.992Z,100337.00
2023-05-14T14:48:57.154Z,100331.47
2023-05-14T14:52:00.588Z,100332.34
2023-05-14T14:55:04.532Z,100334.75
2023-05-14T14:58:07.729Z,100325.75
2023-05-14T15:01:11.494Z,100317.38
2023-05-14T15:04:14.854Z,100324.97
2023-05-14T15:07:18.828Z,100314.75
2023-05-14T15:10:22.091Z,100314.44
2023-05-14T15:13:27.339Z,100308.88
2023-05-14T15:16:30.626Z,100300.56
2023-05-14T15:19:34.130Z,100288.94
2023-05-14T15:22:37.260Z,100291.44
2023-05-14T15:25:40.784Z,100288.81
2023-05-14T15:28:44.023Z,100252.50
2023-05-14T15:31:48.970Z,100273.44
2023-05-14T15:34:52.483Z,100274.37
2023-05-14T15:37:57.496Z,100273.53
2023-05-14T15:41:01.314Z,100261.37
2023-05-14T15:44:05.053Z,100271.81
2023-05-14T15:47:08.119Z,100265.50
2023-05-14T15:50:12.120Z,100268.00
2023-05-14T15:53:15.440Z,100277.00
2023-05-14T15:56:19.053Z,100270.72
2023-05-14T15:59:22.339Z,100279.06
2023-05-14T16:02:25.942Z,100266.03
2023-05-14T16:05:29.712Z,100257.37
2023-05-14T16:08:33.082Z,100256.50
2023-05-14T16:11:36.775Z,100245.03
2023-05-14T16:14:42.003Z,100236.87
2023-05-14T16:17:45.607Z,100221.59
2023-05-14T16:20:48.828Z,100221.94
2023-05-14T16:23:53.289Z,100215.75
2023-05-14T16:26:56.729Z,100207.47
2023-05-14T16:30:00.947Z,100212.16
2023-05-14T16:33:04.152Z,100222.78
2023-05-14T16:36:07.632Z,100217.22
2023-05-14T16:39:11.631Z,100226.47
2023-05-14T16:42:15.246Z,100228.84
2023-05-14T16:45:18.913Z,100227.00
2023-05-14T16:48:24.016Z,100225.28
2023-05-14T16:51:27.076Z,100227.88
2023-05-14T16:54:30.421Z,100223.09
2023-05-14T16:57:34.406Z,100212.34
2023-05-14T17:00:37.789Z,100196.31
2023-05-14T17:03:41.841Z,100187.41
2023-05-14T17:06:46.892Z,100190.88
2023-05-14T17:09:50.033Z,100180.91
2023-05-14T17:12:53.531Z,100180.03
2023-05-14T17:15:57.982Z,100173.75
2023-05-14T17:19:02.084Z,100178.31
2023-05-14T17:22:06.075Z,100171.12
2023-05-14T17:25:10.859Z,100165.63
2023-05-14T17:28:14.057Z,100158.34
2023-05-14T17:31:17.691Z,100165.72
2023-05-14T17:34:21.240Z,100164.75
2023-05-14T17:37:25.763Z,100157.38
2023-05-14T17:40:29.095Z,100156.63
2023-05-14T17:43:32.588Z,100160.28
2023-05-14T17:46:36.742Z,100149.44
2023-05-14T17:49:40.073Z,100149.59
2023-05-14T17:52:44.363Z,100143.41
2023-05-14T17:55:48.123Z,100143.16
2023-05-14T17:58:51.300Z,100137.34
2023-05-14T18:01:54.813Z,100146.22
2023-05-14T18:04:58.206Z,100131.03
2023-05-14T18:08:03.452Z,100138.53
2023-05-14T18:11:10.799Z,100121.50
2023-05-14T18:14:14.954Z,100119.78
2023-05-14T18:17:20.355Z,100122.37
2023-05-14T18:20:25.173Z,100122.28
2023-05-14T18:23:29.103Z,100108.72
2023-05-14T18:26:34.608Z,100107.84
2023-05-14T18:29:39.238Z,100115.00
2023-05-14T18:32:45.044Z,100110.66
2023-05-14T18:35:51.709Z,100115.13
2023-05-14T18:38:56.762Z,100121.41
2023-05-14T18:42:03.008Z,100118.56
2023-05-14T18:45:07.667Z,100117.59
2023-05-14T18:48:13.945Z,100113.03
2023-05-14T18:51:18.423Z,100119.22
2023-05-14T18:54:24.089Z,100123.66
2023-05-14T18:57:29.892Z,100119.09
2023-05-14T19:00:35.055Z,100113.47
2023-05-14T19:03:43.169Z,100115.19
2023-05-14T19:06:54.238Z,100111.63
2023-05-14T19:09:59.138Z,100114.09
2023-05-14T19:13:03.693Z,100123.09
2023-05-14T19:16:09.024Z,100114.00
2023-05-14T19:19:14.027Z,100117.56
2023-05-14T19:22:19.771Z,100110.28
2023-05-14T19:25:24.617Z,100083.66
2023-05-14T19:28:30.489Z,100077.66
2023-05-14T19:31:35.088Z,100091.31
2023-05-14T19:34:40.521Z,100089.59
2023-05-14T19:37:46.054Z,100088.72
2023-05-14T19:40:51.367Z,100090.69
2023-05-14T19:43:55.921Z,100094.37
2023-05-14T19:46:59.981Z,100091.56
2023-05-14T19:50:05.745Z,100095.97
2023-05-14T19:53:11.983Z,100086.22
2023-05-14T19:56:17.440Z,100083.19
2023-05-14T19:59:22.179Z,100079.59
2023-05-14T20:02:27.784Z,100085.03
2023-05-14T20:05:34.446Z,100079.59
2023-05-14T20:08:38.279Z,100068.88
2023-05-14T20:11:41.970Z,100071.56
2023-05-14T20:14:45.453Z,100071.56
2023-05-14T20:17:49.124Z,100051.97
2023-05-14T20:20:52.572Z,100048.16
2023-05-14T20:23:56.290Z,100050.97
2023-05-14T20:26:59.674Z,100037.56
2023-05-14T20:30:03.264Z,100038.28
2023-05-14T20:33:06.870Z,100046.41
2023-05-14T20:36:10.616Z,100040.28
2023-05-14T20:39:14.764Z,100041.00
2023-05-14T20:42:18.141Z,100032.88
2023-05-14T20:45:21.446Z,100017.59
2023-05-14T20:48:25.058Z,100013.50
2023-05-14T20:51:28.349Z,100024.72
2023-05-14T20:54:31.914Z,100023.78
2023-05-14T20:57:35.120Z,100025.62
2023-05-14T21:00:39.388Z,100032.75
2023-05-14T21:03:42.676Z,100023.87
2023-05-14T21:06:46.374Z,100031.03
2023-05-14T21:09:52.455Z,100032.12
2023-05-14T21:12:56.234Z,100024.63
2023-05-14T21:16:00.472Z,100017.34
2023-05-14T21:19:07.184Z,100010.22
2023-05-14T21:22:10.564Z,100003.03
2023-05-14T21:25:14.055Z,99981.31
2023-05-14T21:28:17.252Z,99987.00
2023-05-14T21:31:21.007Z,99988.75
2023-05-14T21:34:24.157Z,99988.88
2023-05-14T21:37:27.640Z,99975.66
2023-05-14T21:40:30.913Z,99979.13
2023-05-14T21:43:35.545Z,99981.94
2023-05-14T21:46:38.681Z,99963.53
2023-05-14T21:49:43.319Z,99970.22
2023-05-14T21:52:47.509Z,99964.56
2023-05-14T21:55:51.092Z,99943.34
2023-05-14T21:58:56.195Z,99948.44
2023-05-14T22:05:06.137Z,99926.63
2023-05-14T22:08:09.303Z,99920.69
2023-05-14T22:11:12.676Z,99920.22
2023-05-14T22:14:15.966Z,99915.56
2023-05-14T22:17:19.462Z,99918.13
2023-05-14T22:20:22.732Z,99924.31
2023-05-14T22:23:26.121Z,99909.91
2023-05-14T22:26:29.323Z,99884.72
2023-05-14T22:29:32.649Z,99910.84
2023-05-14T22:32:36.027Z,99905.69
2023-05-14T22:35:40.606Z,99915.31
2023-05-14T22:38:45.078Z,99924.31
2023-05-14T22:41:55.083Z,99921.50
2023-05-14T22:44:58.357Z,99899.63
2023-05-14T22:48:02.643Z,99918.66
2023-05-14T22:51:06.062Z,99924.19
2023-05-14T22:54:10.759Z,99915.81
2023-05-14T22:57:15.021Z,99900.75
2023-05-14T23:00:18.864Z,99904.84
2023-05-14T23:03:21.948Z,99890.31
2023-05-14T23:06:25.577Z,99897.59
2023-05-14T23:09:28.761Z,99898.47
2023-05-14T23:12:32.580Z,99899.31
2023-05-14T23:15:35.807Z,99899.31
2023-05-14T23:18:39.426Z,99892.19
2023-05-14T23:21:42.637Z,99871.44
2023-05-14T23:24:46.127Z,99900.53
2023-05-14T23:27:50.174Z,99904.97
2023-05-14T23:30:53.728Z,99896.19
2023-05-14T23:33:57.268Z,99886.25
2023-05-14T23:37:01.755Z,99879.59
2023-05-14T23:40:07.440Z,99884.16
2023-05-14T23:43:10.896Z,99872.56
2023-05-14T23:46:14.315Z,99868.72
2023-05-14T23:49:17.740Z,99849.91
2023-05-14T23:52:20.852Z,99849.00
2023-05-14T23:55:24.515Z,99846.19
2023-05-14T23:58:30.139Z,99812.25
